sensor_id;sensor_type;location;lat;lon;timestamp;temperature;humidity
24146;DHT22;12308;50.948;4.706;2022-08-19T00:00:20;20.00;99.90
24146;DHT22;12308;50.948;4.706;2022-08-19T00:02:46;20.00;99.90
24146;DHT22;12308;50.948;4.706;2022-08-19T00:05:13;20.00;99.90
24146;DHT22;12308;50.948;4.706;2022-08-19T00:07:41;20.00;99.90
24146;DHT22;12308;50.948;4.706;2022-08-19T00:10:09;20.00;99.90
24146;DHT22;12308;50.948;4.706;2022-08-19T00:12:36;20.10;99.90
24146;DHT22;12308;50.948;4.706;2022-08-19T00:15:04;20.10;99.90
24146;DHT22;12308;50.948;4.706;2022-08-19T00:17:30;20.00;99.90
24146;DHT22;12308;50.948;4.706;2022-08-19T00:19:56;20.00;99.90
24146;DHT22;12308;50.948;4.706;2022-08-19T00:22:22;19.90;99.90
24146;DHT22;12308;50.948;4.706;2022-08-19T00:24:47;19.80;99.90
24146;DHT22;12308;50.948;4.706;2022-08-19T00:27:13;19.80;99.90
24146;DHT22;12308;50.948;4.706;2022-08-19T00:29:40;19.80;99.90
24146;DHT22;12308;50.948;4.706;2022-08-19T00:32:06;19.80;99.90
24146;DHT22;12308;50.948;4.706;2022-08-19T00:34:32;19.80;99.90
24146;DHT22;12308;50.948;4.706;2022-08-19T00:36:58;19.70;99.90
24146;DHT22;12308;50.948;4.706;2022-08-19T00:39:25;19.80;99.90
24146;DHT22;12308;50.948;4.706;2022-08-19T00:41:51;19.80;99.90
24146;DHT22;12308;50.948;4.706;2022-08-19T00:44:28;19.80;99.90
24146;DHT22;12308;50.948;4.706;2022-08-19T00:46:57;19.70;99.90
24146;DHT22;12308;50.948;4.706;2022-08-19T00:49:29;19.70;99.90
24146;DHT22;12308;50.948;4.706;2022-08-19T00:52:06;19.70;99.90
24146;DHT22;12308;50.948;4.706;2022-08-19T00:54:35;19.70;99.90
24146;DHT22;12308;50.948;4.706;2022-08-19T00:57:04;19.70;99.90
24146;DHT22;12308;50.948;4.706;2022-08-19T00:59:31;19.80;99.90
24146;DHT22;12308;50.948;4.706;2022-08-19T01:02:00;19.70;99.90
24146;DHT22;12308;50.948;4.706;2022-08-19T01:04:25;19.70;99.90
24146;DHT22;12308;50.948;4.706;2022-08-19T01:06:51;19.70;99.90
24146;DHT22;12308;50.948;4.706;2022-08-19T01:09:17;19.70;99.90
24146;DHT22;12308;50.948;4.706;2022-08-19T01:11:44;19.70;99.90
24146;DHT22;12308;50.948;4.706;2022-08-19T01:14:10;19.70;99.90
24146;DHT22;12308;50.948;4.706;2022-08-19T01:16:38;19.70;99.90
24146;DHT22;12308;50.948;4.706;2022-08-19T01:19:20;19.90;99.90
24146;DHT22;12308;50.948;4.706;2022-08-19T01:21:59;19.70;99.90
24146;DHT22;12308;50.948;4.706;2022-08-19T01:24:27;19.60;99.90
24146;DHT22;12308;50.948;4.706;2022-08-19T01:26:52;19.70;99.90
24146;DHT22;12308;50.948;4.706;2022-08-19T01:29:18;19.70;99.90
24146;DHT22;12308;50.948;4.706;2022-08-19T01:31:44;19.70;99.90
24146;DHT22;12308;50.948;4.706;2022-08-19T01:34:09;19.60;99.90
24146;DHT22;12308;50.948;4.706;2022-08-19T01:36:44;19.70;99.90
24146;DHT22;12308;50.948;4.706;2022-08-19T01:39:22;19.60;99.90
24146;DHT22;12308;50.948;4.706;2022-08-19T01:41:49;19.60;99.90
24146;DHT22;12308;50.948;4.706;2022-08-19T01:44:15;19.60;99.90
24146;DHT22;12308;50.948;4.706;2022-08-19T01:46:41;19.70;99.90
24146;DHT22;12308;50.948;4.706;2022-08-19T01:49:08;19.70;99.90
24146;DHT22;12308;50.948;4.706;2022-08-19T01:51:34;19.60;99.90
24146;DHT22;12308;50.948;4.706;2022-08-19T01:54:00;19.60;99.90
24146;DHT22;12308;50.948;4.706;2022-08-19T01:56:26;19.50;99.90
24146;DHT22;12308;50.948;4.706;2022-08-19T01:59:03;19.50;99.90
24146;DHT22;12308;50.948;4.706;2022-08-19T02:01:30;19.40;99.90
24146;DHT22;12308;50.948;4.706;2022-08-19T02:03:58;19.50;99.90
24146;DHT22;12308;50.948;4.706;2022-08-19T02:06:24;19.50;99.90
24146;DHT22;12308;50.948;4.706;2022-08-19T02:08:49;19.50;99.90
24146;DHT22;12308;50.948;4.706;2022-08-19T02:11:25;19.50;99.90
24146;DHT22;12308;50.948;4.706;2022-08-19T02:13:55;19.50;99.90
24146;DHT22;12308;50.948;4.706;2022-08-19T02:16:21;19.50;99.90
24146;DHT22;12308;50.948;4.706;2022-08-19T02:18:47;19.40;99.90
24146;DHT22;12308;50.948;4.706;2022-08-19T02:21:20;19.40;99.90
24146;DHT22;12308;50.948;4.706;2022-08-19T02:23:47;19.40;99.90
24146;DHT22;12308;50.948;4.706;2022-08-19T02:26:13;19.40;99.90
24146;DHT22;12308;50.948;4.706;2022-08-19T02:28:41;19.40;99.90
24146;DHT22;12308;50.948;4.706;2022-08-19T02:31:18;19.40;99.90
24146;DHT22;12308;50.948;4.706;2022-08-19T02:33:45;19.30;99.90
24146;DHT22;12308;50.948;4.706;2022-08-19T02:36:13;19.30;99.90
24146;DHT22;12308;50.948;4.706;2022-08-19T02:38:40;19.10;99.90
24146;DHT22;12308;50.948;4.706;2022-08-19T02:41:20;19.10;99.90
24146;DHT22;12308;50.948;4.706;2022-08-19T02:43:47;19.20;99.90
24146;DHT22;12308;50.948;4.706;2022-08-19T02:46:18;19.20;99.90
24146;DHT22;12308;50.948;4.706;2022-08-19T02:48:51;19.10;99.90
24146;DHT22;12308;50.948;4.706;2022-08-19T02:51:20;19.20;99.90
24146;DHT22;12308;50.948;4.706;2022-08-19T02:53:46;19.00;99.90
24146;DHT22;12308;50.948;4.706;2022-08-19T02:56:12;19.00;99.90
24146;DHT22;12308;50.948;4.706;2022-08-19T02:58:38;19.00;99.90
24146;DHT22;12308;50.948;4.706;2022-08-19T03:01:04;19.00;99.90
24146;DHT22;12308;50.948;4.706;2022-08-19T03:03:30;19.10;99.90
24146;DHT22;12308;50.948;4.706;2022-08-19T03:06:10;19.10;99.90
24146;DHT22;12308;50.948;4.706;2022-08-19T03:08:38;19.10;99.90
24146;DHT22;12308;50.948;4.706;2022-08-19T03:11:04;19.00;99.90
24146;DHT22;12308;50.948;4.706;2022-08-19T03:13:30;19.10;99.90
24146;DHT22;12308;50.948;4.706;2022-08-19T03:15:55;18.90;99.90
24146;DHT22;12308;50.948;4.706;2022-08-19T03:18:21;18.80;99.90
24146;DHT22;12308;50.948;4.706;2022-08-19T03:20:49;18.80;99.90
24146;DHT22;12308;50.948;4.706;2022-08-19T03:23:16;18.70;99.90
24146;DHT22;12308;50.948;4.706;2022-08-19T03:25:45;18.70;99.90
24146;DHT22;12308;50.948;4.706;2022-08-19T03:28:12;18.70;99.90
24146;DHT22;12308;50.948;4.706;2022-08-19T03:30:40;18.80;99.90
24146;DHT22;12308;50.948;4.706;2022-08-19T03:33:10;18.70;99.90
24146;DHT22;12308;50.948;4.706;2022-08-19T03:35:37;18.70;99.90
24146;DHT22;12308;50.948;4.706;2022-08-19T03:38:04;18.50;99.90
24146;DHT22;12308;50.948;4.706;2022-08-19T03:40:31;18.50;99.90
24146;DHT22;12308;50.948;4.706;2022-08-19T03:42:57;18.50;99.90
24146;DHT22;12308;50.948;4.706;2022-08-19T03:45:23;18.40;99.90
24146;DHT22;12308;50.948;4.706;2022-08-19T03:47:49;18.40;99.90
24146;DHT22;12308;50.948;4.706;2022-08-19T03:50:15;18.30;99.90
24146;DHT22;12308;50.948;4.706;2022-08-19T03:52:41;18.30;99.90
24146;DHT22;12308;50.948;4.706;2022-08-19T03:55:08;18.30;99.90
24146;DHT22;12308;50.948;4.706;2022-08-19T03:57:34;18.30;99.90
24146;DHT22;12308;50.948;4.706;2022-08-19T04:00:00;18.30;99.90
24146;DHT22;12308;50.948;4.706;2022-08-19T04:02:26;18.30;99.90
24146;DHT22;12308;50.948;4.706;2022-08-19T04:04:53;18.30;99.90
24146;DHT22;12308;50.948;4.706;2022-08-19T04:07:20;18.30;99.90
24146;DHT22;12308;50.948;4.706;2022-08-19T04:09:47;18.30;99.90
24146;DHT22;12308;50.948;4.706;2022-08-19T04:12:13;18.20;99.90
24146;DHT22;12308;50.948;4.706;2022-08-19T04:14:40;18.20;99.90
24146;DHT22;12308;50.948;4.706;2022-08-19T04:17:06;18.20;99.90
24146;DHT22;12308;50.948;4.706;2022-08-19T04:19:35;18.20;99.90
24146;DHT22;12308;50.948;4.706;2022-08-19T04:22:01;18.30;99.90
24146;DHT22;12308;50.948;4.706;2022-08-19T04:24:27;18.30;99.90
24146;DHT22;12308;50.948;4.706;2022-08-19T04:26:53;18.30;99.90
24146;DHT22;12308;50.948;4.706;2022-08-19T04:29:21;18.20;99.90
24146;DHT22;12308;50.948;4.706;2022-08-19T04:31:48;18.30;99.90
24146;DHT22;12308;50.948;4.706;2022-08-19T04:34:18;18.20;99.90
24146;DHT22;12308;50.948;4.706;2022-08-19T04:36:48;18.20;99.90
24146;DHT22;12308;50.948;4.706;2022-08-19T04:39:22;18.10;99.90
24146;DHT22;12308;50.948;4.706;2022-08-19T04:42:08;18.10;99.90
24146;DHT22;12308;50.948;4.706;2022-08-19T04:44:53;18.00;99.90
24146;DHT22;12308;50.948;4.706;2022-08-19T04:47:18;18.10;99.90
24146;DHT22;12308;50.948;4.706;2022-08-19T04:49:44;18.00;99.90
24146;DHT22;12308;50.948;4.706;2022-08-19T04:52:10;18.10;99.90
24146;DHT22;12308;50.948;4.706;2022-08-19T04:54:35;18.00;99.90
24146;DHT22;12308;50.948;4.706;2022-08-19T04:57:01;18.00;99.90
24146;DHT22;12308;50.948;4.706;2022-08-19T04:59:26;18.10;99.90
24146;DHT22;12308;50.948;4.706;2022-08-19T05:01:52;18.10;99.90
24146;DHT22;12308;50.948;4.706;2022-08-19T05:04:19;18.10;99.90
24146;DHT22;12308;50.948;4.706;2022-08-19T05:06:46;18.20;99.90
24146;DHT22;12308;50.948;4.706;2022-08-19T05:09:12;18.30;99.90
24146;DHT22;12308;50.948;4.706;2022-08-19T05:11:38;18.30;99.90
24146;DHT22;12308;50.948;4.706;2022-08-19T05:14:05;18.30;99.90
24146;DHT22;12308;50.948;4.706;2022-08-19T05:16:31;18.30;99.90
24146;DHT22;12308;50.948;4.706;2022-08-19T05:18:57;18.30;99.90
24146;DHT22;12308;50.948;4.706;2022-08-19T05:21:42;18.30;99.90
24146;DHT22;12308;50.948;4.706;2022-08-19T05:24:27;18.50;99.90
24146;DHT22;12308;50.948;4.706;2022-08-19T05:26:54;18.50;99.90
24146;DHT22;12308;50.948;4.706;2022-08-19T05:29:23;18.50;99.90
24146;DHT22;12308;50.948;4.706;2022-08-19T05:31:50;18.60;99.90
24146;DHT22;12308;50.948;4.706;2022-08-19T05:34:18;18.60;99.90
24146;DHT22;12308;50.948;4.706;2022-08-19T05:36:48;18.60;99.90
24146;DHT22;12308;50.948;4.706;2022-08-19T05:39:18;18.70;99.90
24146;DHT22;12308;50.948;4.706;2022-08-19T05:41:55;18.70;99.90
24146;DHT22;12308;50.948;4.706;2022-08-19T05:44:27;18.80;99.90
24146;DHT22;12308;50.948;4.706;2022-08-19T05:46:53;18.90;99.90
24146;DHT22;12308;50.948;4.706;2022-08-19T05:49:21;19.00;99.90
24146;DHT22;12308;50.948;4.706;2022-08-19T05:51:47;19.20;99.90
24146;DHT22;12308;50.948;4.706;2022-08-19T05:54:12;19.20;99.90
24146;DHT22;12308;50.948;4.706;2022-08-19T05:56:42;19.20;99.90
24146;DHT22;12308;50.948;4.706;2022-08-19T05:59:09;19.20;99.90
24146;DHT22;12308;50.948;4.706;2022-08-19T06:01:41;19.30;99.90
24146;DHT22;12308;50.948;4.706;2022-08-19T06:04:07;19.40;99.90
24146;DHT22;12308;50.948;4.706;2022-08-19T06:06:34;19.50;99.90
24146;DHT22;12308;50.948;4.706;2022-08-19T06:09:05;19.70;99.90
24146;DHT22;12308;50.948;4.706;2022-08-19T06:11:37;19.80;99.90
24146;DHT22;12308;50.948;4.706;2022-08-19T06:14:15;19.90;99.90
24146;DHT22;12308;50.948;4.706;2022-08-19T06:16:43;20.10;99.90
24146;DHT22;12308;50.948;4.706;2022-08-19T06:19:12;20.30;99.90
24146;DHT22;12308;50.948;4.706;2022-08-19T06:21:40;20.30;99.90
24146;DHT22;12308;50.948;4.706;2022-08-19T06:24:10;20.40;99.90
24146;DHT22;12308;50.948;4.706;2022-08-19T06:26:38;20.50;99.90
24146;DHT22;12308;50.948;4.706;2022-08-19T06:29:05;20.60;99.90
24146;DHT22;12308;50.948;4.706;2022-08-19T06:31:33;20.60;99.90
24146;DHT22;12308;50.948;4.706;2022-08-19T06:34:00;20.60;99.90
24146;DHT22;12308;50.948;4.706;2022-08-19T06:36:34;20.50;99.90
24146;DHT22;12308;50.948;4.706;2022-08-19T06:39:11;20.40;99.90
24146;DHT22;12308;50.948;4.706;2022-08-19T06:41:39;20.70;99.90
24146;DHT22;12308;50.948;4.706;2022-08-19T06:44:05;20.90;99.90
24146;DHT22;12308;50.948;4.706;2022-08-19T06:46:31;21.00;99.90
24146;DHT22;12308;50.948;4.706;2022-08-19T06:48:57;21.10;99.90
24146;DHT22;12308;50.948;4.706;2022-08-19T06:51:23;21.20;99.90
24146;DHT22;12308;50.948;4.706;2022-08-19T06:53:51;21.20;99.90
24146;DHT22;12308;50.948;4.706;2022-08-19T06:56:19;21.30;99.90
24146;DHT22;12308;50.948;4.706;2022-08-19T06:58:46;21.20;99.90
24146;DHT22;12308;50.948;4.706;2022-08-19T07:01:13;21.10;99.90
24146;DHT22;12308;50.948;4.706;2022-08-19T07:03:39;21.20;99.90
24146;DHT22;12308;50.948;4.706;2022-08-19T07:06:07;21.40;99.90
24146;DHT22;12308;50.948;4.706;2022-08-19T07:08:33;21.30;99.90
24146;DHT22;12308;50.948;4.706;2022-08-19T07:11:00;21.40;99.90
24146;DHT22;12308;50.948;4.706;2022-08-19T07:13:26;21.30;99.90
24146;DHT22;12308;50.948;4.706;2022-08-19T07:15:52;21.50;99.90
24146;DHT22;12308;50.948;4.706;2022-08-19T07:18:19;21.60;99.90
24146;DHT22;12308;50.948;4.706;2022-08-19T07:20:46;21.60;99.90
24146;DHT22;12308;50.948;4.706;2022-08-19T07:23:12;21.70;99.90
24146;DHT22;12308;50.948;4.706;2022-08-19T07:25:38;21.50;99.90
24146;DHT22;12308;50.948;4.706;2022-08-19T07:28:04;21.60;99.90
24146;DHT22;12308;50.948;4.706;2022-08-19T07:30:30;21.60;99.90
24146;DHT22;12308;50.948;4.706;2022-08-19T07:32:56;21.40;99.90
24146;DHT22;12308;50.948;4.706;2022-08-19T07:35:22;21.60;99.90
24146;DHT22;12308;50.948;4.706;2022-08-19T07:37:49;21.90;99.90
24146;DHT22;12308;50.948;4.706;2022-08-19T07:40:15;22.30;99.90
24146;DHT22;12308;50.948;4.706;2022-08-19T07:42:41;22.30;99.90
24146;DHT22;12308;50.948;4.706;2022-08-19T07:45:08;22.20;99.90
24146;DHT22;12308;50.948;4.706;2022-08-19T07:47:34;22.30;99.90
24146;DHT22;12308;50.948;4.706;2022-08-19T07:50:00;22.30;99.90
24146;DHT22;12308;50.948;4.706;2022-08-19T07:52:26;22.20;99.90
24146;DHT22;12308;50.948;4.706;2022-08-19T07:54:51;22.10;99.90
24146;DHT22;12308;50.948;4.706;2022-08-19T07:57:17;22.20;99.90
24146;DHT22;12308;50.948;4.706;2022-08-19T07:59:44;22.10;99.90
24146;DHT22;12308;50.948;4.706;2022-08-19T08:02:10;22.20;99.90
24146;DHT22;12308;50.948;4.706;2022-08-19T08:04:36;22.00;99.90
24146;DHT22;12308;50.948;4.706;2022-08-19T08:07:20;21.70;99.90
24146;DHT22;12308;50.948;4.706;2022-08-19T08:10:05;21.50;99.90
24146;DHT22;12308;50.948;4.706;2022-08-19T08:12:35;21.80;99.90
24146;DHT22;12308;50.948;4.706;2022-08-19T08:15:06;22.20;99.90
24146;DHT22;12308;50.948;4.706;2022-08-19T08:17:33;22.30;99.90
24146;DHT22;12308;50.948;4.706;2022-08-19T08:19:59;22.40;99.90
24146;DHT22;12308;50.948;4.706;2022-08-19T08:22:25;22.70;99.90
24146;DHT22;12308;50.948;4.706;2022-08-19T08:25:16;22.70;99.90
24146;DHT22;12308;50.948;4.706;2022-08-19T08:27:43;22.60;99.90
24146;DHT22;12308;50.948;4.706;2022-08-19T08:30:25;22.80;99.90
24146;DHT22;12308;50.948;4.706;2022-08-19T08:32:51;23.00;99.90
24146;DHT22;12308;50.948;4.706;2022-08-19T08:35:21;23.10;99.90
24146;DHT22;12308;50.948;4.706;2022-08-19T08:37:49;23.00;99.90
24146;DHT22;12308;50.948;4.706;2022-08-19T08:40:23;23.20;99.90
24146;DHT22;12308;50.948;4.706;2022-08-19T08:43:07;23.50;99.90
24146;DHT22;12308;50.948;4.706;2022-08-19T08:45:38;23.70;99.90
24146;DHT22;12308;50.948;4.706;2022-08-19T08:48:20;23.90;99.90
24146;DHT22;12308;50.948;4.706;2022-08-19T08:50:48;23.80;99.90
24146;DHT22;12308;50.948;4.706;2022-08-19T08:53:17;23.80;99.90
24146;DHT22;12308;50.948;4.706;2022-08-19T08:55:44;24.10;99.90
24146;DHT22;12308;50.948;4.706;2022-08-19T08:58:30;24.30;99.90
24146;DHT22;12308;50.948;4.706;2022-08-19T09:00:57;24.20;99.90
24146;DHT22;12308;50.948;4.706;2022-08-19T09:03:25;24.20;99.90
24146;DHT22;12308;50.948;4.706;2022-08-19T09:06:09;24.10;99.90
24146;DHT22;12308;50.948;4.706;2022-08-19T09:12:20;24.20;99.90
24146;DHT22;12308;50.948;4.706;2022-08-19T09:14:48;24.10;99.90
24146;DHT22;12308;50.948;4.706;2022-08-19T09:17:16;24.00;99.90
24146;DHT22;12308;50.948;4.706;2022-08-19T09:22:33;24.10;99.90
24146;DHT22;12308;50.948;4.706;2022-08-19T09:24:59;24.40;99.90
24146;DHT22;12308;50.948;4.706;2022-08-19T09:27:26;24.50;99.90
24146;DHT22;12308;50.948;4.706;2022-08-19T09:29:53;24.40;99.90
24146;DHT22;12308;50.948;4.706;2022-08-19T09:32:19;24.30;99.90
24146;DHT22;12308;50.948;4.706;2022-08-19T09:34:45;24.30;99.90
24146;DHT22;12308;50.948;4.706;2022-08-19T09:37:12;24.50;99.90
24146;DHT22;12308;50.948;4.706;2022-08-19T09:39:39;24.70;99.90
24146;DHT22;12308;50.948;4.706;2022-08-19T09:42:07;24.70;99.90
24146;DHT22;12308;50.948;4.706;2022-08-19T09:44:38;24.30;99.90
24146;DHT22;12308;50.948;4.706;2022-08-19T09:47:04;24.20;99.90
24146;DHT22;12308;50.948;4.706;2022-08-19T09:49:30;24.30;99.90
24146;DHT22;12308;50.948;4.706;2022-08-19T09:51:56;24.30;99.90
24146;DHT22;12308;50.948;4.706;2022-08-19T09:54:22;24.80;99.90
24146;DHT22;12308;50.948;4.706;2022-08-19T09:56:48;25.10;99.90
24146;DHT22;12308;50.948;4.706;2022-08-19T09:59:14;25.20;99.90
24146;DHT22;12308;50.948;4.706;2022-08-19T10:01:40;24.90;99.90
24146;DHT22;12308;50.948;4.706;2022-08-19T10:04:06;25.00;99.90
24146;DHT22;12308;50.948;4.706;2022-08-19T10:06:36;24.90;99.90
24146;DHT22;12308;50.948;4.706;2022-08-19T10:09:03;24.90;99.90
24146;DHT22;12308;50.948;4.706;2022-08-19T10:11:32;25.00;99.90
24146;DHT22;12308;50.948;4.706;2022-08-19T10:13:58;25.00;99.90
24146;DHT22;12308;50.948;4.706;2022-08-19T10:16:25;25.10;99.90
24146;DHT22;12308;50.948;4.706;2022-08-19T10:18:51;25.20;99.90
24146;DHT22;12308;50.948;4.706;2022-08-19T10:21:20;25.20;99.90
24146;DHT22;12308;50.948;4.706;2022-08-19T10:23:49;25.30;99.90
24146;DHT22;12308;50.948;4.706;2022-08-19T10:26:22;25.40;99.90
24146;DHT22;12308;50.948;4.706;2022-08-19T10:28:48;25.60;99.90
24146;DHT22;12308;50.948;4.706;2022-08-19T10:31:18;25.50;99.90
24146;DHT22;12308;50.948;4.706;2022-08-19T10:33:45;25.50;99.90
24146;DHT22;12308;50.948;4.706;2022-08-19T10:36:17;25.80;99.90
24146;DHT22;12308;50.948;4.706;2022-08-19T10:38:44;26.00;99.90
24146;DHT22;12308;50.948;4.706;2022-08-19T10:41:17;26.40;99.90
24146;DHT22;12308;50.948;4.706;2022-08-19T10:43:43;26.70;99.90
24146;DHT22;12308;50.948;4.706;2022-08-19T10:46:12;26.60;99.90
24146;DHT22;12308;50.948;4.706;2022-08-19T10:48:38;26.40;99.90
24146;DHT22;12308;50.948;4.706;2022-08-19T10:51:05;26.40;99.90
24146;DHT22;12308;50.948;4.706;2022-08-19T10:53:50;26.60;99.90
24146;DHT22;12308;50.948;4.706;2022-08-19T10:56:17;26.50;99.90
24146;DHT22;12308;50.948;4.706;2022-08-19T10:59:02;26.40;99.90
24146;DHT22;12308;50.948;4.706;2022-08-19T11:01:30;26.50;99.90
24146;DHT22;12308;50.948;4.706;2022-08-19T11:03:57;26.60;99.90
24146;DHT22;12308;50.948;4.706;2022-08-19T11:06:23;26.50;99.90
24146;DHT22;12308;50.948;4.706;2022-08-19T11:08:51;26.60;99.90
24146;DHT22;12308;50.948;4.706;2022-08-19T11:11:17;26.70;99.90
24146;DHT22;12308;50.948;4.706;2022-08-19T11:13:43;26.80;99.90
24146;DHT22;12308;50.948;4.706;2022-08-19T11:16:17;27.00;99.90
24146;DHT22;12308;50.948;4.706;2022-08-19T11:18:50;27.20;99.90
24146;DHT22;12308;50.948;4.706;2022-08-19T11:21:23;27.20;99.90
24146;DHT22;12308;50.948;4.706;2022-08-19T11:23:51;27.00;99.90
24146;DHT22;12308;50.948;4.706;2022-08-19T11:26:18;26.90;99.90
24146;DHT22;12308;50.948;4.706;2022-08-19T11:28:45;26.70;99.90
24146;DHT22;12308;50.948;4.706;2022-08-19T11:31:18;26.60;99.90
24146;DHT22;12308;50.948;4.706;2022-08-19T11:33:44;26.60;99.90
24146;DHT22;12308;50.948;4.706;2022-08-19T11:36:12;26.90;99.90
24146;DHT22;12308;50.948;4.706;2022-08-19T11:38:38;26.40;99.90
24146;DHT22;12308;50.948;4.706;2022-08-19T11:41:06;26.50;99.90
24146;DHT22;12308;50.948;4.706;2022-08-19T11:43:33;26.60;99.90
24146;DHT22;12308;50.948;4.706;2022-08-19T11:46:02;26.70;99.90
24146;DHT22;12308;50.948;4.706;2022-08-19T11:48:28;26.70;99.90
24146;DHT22;12308;50.948;4.706;2022-08-19T11:50:54;26.50;99.90
24146;DHT22;12308;50.948;4.706;2022-08-19T11:53:22;26.10;99.90
24146;DHT22;12308;50.948;4.706;2022-08-19T11:55:48;26.00;99.90
24146;DHT22;12308;50.948;4.706;2022-08-19T11:58:15;25.70;99.90
24146;DHT22;12308;50.948;4.706;2022-08-19T12:00:42;25.40;99.90
24146;DHT22;12308;50.948;4.706;2022-08-19T12:03:11;25.30;99.90
24146;DHT22;12308;50.948;4.706;2022-08-19T12:05:38;25.40;99.90
24146;DHT22;12308;50.948;4.706;2022-08-19T12:08:04;25.30;99.90
24146;DHT22;12308;50.948;4.706;2022-08-19T12:10:30;25.20;99.90
24146;DHT22;12308;50.948;4.706;2022-08-19T12:12:56;25.20;99.90
24146;DHT22;12308;50.948;4.706;2022-08-19T12:15:22;24.90;99.90
24146;DHT22;12308;50.948;4.706;2022-08-19T12:17:48;24.70;99.90
24146;DHT22;12308;50.948;4.706;2022-08-19T12:20:14;24.90;99.90
24146;DHT22;12308;50.948;4.706;2022-08-19T12:22:41;25.10;99.90
24146;DHT22;12308;50.948;4.706;2022-08-19T12:25:10;25.50;99.90
24146;DHT22;12308;50.948;4.706;2022-08-19T12:27:36;26.10;99.90
24146;DHT22;12308;50.948;4.706;2022-08-19T12:30:03;26.30;99.90
24146;DHT22;12308;50.948;4.706;2022-08-19T12:32:29;26.90;99.90
24146;DHT22;12308;50.948;4.706;2022-08-19T12:34:55;27.00;99.90
24146;DHT22;12308;50.948;4.706;2022-08-19T12:37:21;26.80;99.90
24146;DHT22;12308;50.948;4.706;2022-08-19T12:39:46;27.10;99.90
24146;DHT22;12308;50.948;4.706;2022-08-19T12:42:13;27.00;99.90
24146;DHT22;12308;50.948;4.706;2022-08-19T12:44:41;27.20;99.90
24146;DHT22;12308;50.948;4.706;2022-08-19T12:47:09;27.30;99.90
24146;DHT22;12308;50.948;4.706;2022-08-19T12:49:35;27.10;99.90
24146;DHT22;12308;50.948;4.706;2022-08-19T12:52:04;27.30;99.90
24146;DHT22;12308;50.948;4.706;2022-08-19T12:54:30;27.10;99.90
24146;DHT22;12308;50.948;4.706;2022-08-19T12:56:56;27.10;99.90
24146;DHT22;12308;50.948;4.706;2022-08-19T12:59:22;27.50;99.90
24146;DHT22;12308;50.948;4.706;2022-08-19T13:01:48;27.70;99.90
24146;DHT22;12308;50.948;4.706;2022-08-19T13:04:14;27.70;99.90
24146;DHT22;12308;50.948;4.706;2022-08-19T13:06:40;27.80;99.90
24146;DHT22;12308;50.948;4.706;2022-08-19T13:09:07;28.00;99.90
24146;DHT22;12308;50.948;4.706;2022-08-19T13:11:34;27.90;99.90
24146;DHT22;12308;50.948;4.706;2022-08-19T13:14:01;27.60;99.90
24146;DHT22;12308;50.948;4.706;2022-08-19T13:16:28;27.50;99.90
24146;DHT22;12308;50.948;4.706;2022-08-19T13:18:55;27.90;99.90
24146;DHT22;12308;50.948;4.706;2022-08-19T13:21:24;27.80;99.90
24146;DHT22;12308;50.948;4.706;2022-08-19T13:23:51;27.90;99.90
24146;DHT22;12308;50.948;4.706;2022-08-19T13:26:18;27.80;99.90
24146;DHT22;12308;50.948;4.706;2022-08-19T13:28:45;27.70;99.90
24146;DHT22;12308;50.948;4.706;2022-08-19T13:31:40;27.80;99.90
24146;DHT22;12308;50.948;4.706;2022-08-19T13:34:33;27.80;99.90
24146;DHT22;12308;50.948;4.706;2022-08-19T13:36:59;28.30;99.90
24146;DHT22;12308;50.948;4.706;2022-08-19T13:39:29;28.50;99.90
24146;DHT22;12308;50.948;4.706;2022-08-19T13:41:54;28.40;99.90
24146;DHT22;12308;50.948;4.706;2022-08-19T13:44:20;28.30;99.90
24146;DHT22;12308;50.948;4.706;2022-08-19T13:46:47;28.10;99.90
24146;DHT22;12308;50.948;4.706;2022-08-19T13:49:14;27.90;99.90
24146;DHT22;12308;50.948;4.706;2022-08-19T13:51:44;27.50;99.90
24146;DHT22;12308;50.948;4.706;2022-08-19T13:54:11;27.90;99.90
24146;DHT22;12308;50.948;4.706;2022-08-19T13:56:45;28.20;99.90
24146;DHT22;12308;50.948;4.706;2022-08-19T13:59:11;28.50;99.90
24146;DHT22;12308;50.948;4.706;2022-08-19T14:01:38;28.70;99.90
24146;DHT22;12308;50.948;4.706;2022-08-19T14:04:04;28.30;99.90
24146;DHT22;12308;50.948;4.706;2022-08-19T14:06:31;28.20;99.90
24146;DHT22;12308;50.948;4.706;2022-08-19T14:08:57;28.20;99.90
24146;DHT22;12308;50.948;4.706;2022-08-19T14:11:22;27.80;99.90
24146;DHT22;12308;50.948;4.706;2022-08-19T14:13:49;27.90;99.90
24146;DHT22;12308;50.948;4.706;2022-08-19T14:16:15;27.80;99.90
24146;DHT22;12308;50.948;4.706;2022-08-19T14:18:41;27.90;99.90
24146;DHT22;12308;50.948;4.706;2022-08-19T14:21:13;28.00;99.90
24146;DHT22;12308;50.948;4.706;2022-08-19T14:23:39;28.30;99.90
24146;DHT22;12308;50.948;4.706;2022-08-19T14:26:11;28.10;99.90
24146;DHT22;12308;50.948;4.706;2022-08-19T14:28:37;28.00;99.90
24146;DHT22;12308;50.948;4.706;2022-08-19T14:31:04;27.50;99.90
24146;DHT22;12308;50.948;4.706;2022-08-19T14:33:30;27.30;99.90
24146;DHT22;12308;50.948;4.706;2022-08-19T14:35:57;27.40;99.90
24146;DHT22;12308;50.948;4.706;2022-08-19T14:38:23;27.70;99.90
24146;DHT22;12308;50.948;4.706;2022-08-19T14:40:48;27.60;99.90
24146;DHT22;12308;50.948;4.706;2022-08-19T14:43:14;27.50;99.90
24146;DHT22;12308;50.948;4.706;2022-08-19T14:45:40;27.50;99.90
24146;DHT22;12308;50.948;4.706;2022-08-19T14:48:07;27.50;99.90
24146;DHT22;12308;50.948;4.706;2022-08-19T14:50:34;27.20;99.90
24146;DHT22;12308;50.948;4.706;2022-08-19T14:53:05;27.30;99.90
24146;DHT22;12308;50.948;4.706;2022-08-19T14:55:31;27.00;99.90
24146;DHT22;12308;50.948;4.706;2022-08-19T14:57:58;27.00;99.90
24146;DHT22;12308;50.948;4.706;2022-08-19T15:00:25;26.90;99.90
24146;DHT22;12308;50.948;4.706;2022-08-19T15:02:51;27.00;99.90
24146;DHT22;12308;50.948;4.706;2022-08-19T15:05:18;26.90;99.90
24146;DHT22;12308;50.948;4.706;2022-08-19T15:07:44;26.80;99.90
24146;DHT22;12308;50.948;4.706;2022-08-19T15:10:13;26.30;99.90
24146;DHT22;12308;50.948;4.706;2022-08-19T15:12:39;26.00;99.90
24146;DHT22;12308;50.948;4.706;2022-08-19T15:15:07;25.70;99.90
24146;DHT22;12308;50.948;4.706;2022-08-19T15:17:33;25.70;99.90
24146;DHT22;12308;50.948;4.706;2022-08-19T15:19:58;25.90;99.90
24146;DHT22;12308;50.948;4.706;2022-08-19T15:22:24;25.90;99.90
24146;DHT22;12308;50.948;4.706;2022-08-19T15:24:50;25.60;99.90
24146;DHT22;12308;50.948;4.706;2022-08-19T15:27:15;25.70;99.90
24146;DHT22;12308;50.948;4.706;2022-08-19T15:29:41;25.70;99.90
24146;DHT22;12308;50.948;4.706;2022-08-19T15:32:07;26.00;99.90
24146;DHT22;12308;50.948;4.706;2022-08-19T15:34:34;26.00;99.90
24146;DHT22;12308;50.948;4.706;2022-08-19T15:37:00;26.20;99.90
24146;DHT22;12308;50.948;4.706;2022-08-19T15:39:27;26.20;99.90
24146;DHT22;12308;50.948;4.706;2022-08-19T15:41:52;26.10;99.90